メインページ
METAR-TAF:

METAR-TAF

空港 :

エドモントン, アルバータ州, カナダ

エドモントン国際空港

緯度: 53-18N, 経度: 113-35W, 海抜: 715m

現時点の気象観測

当レポートは1時間9分前の10:00(UTC)に作成
南西の風 10kt
気温 4°C
湿度 93%
気圧 994 hPa
視程: 16.1km
高度1000ftの千切れ雲あり
高度1800ftの曇り
小雨, 雪

METAR: CYEG 201000Z 23010KT 10SM -RASN BKN010 OVC018 04/03 A2934 RMK SC6SC2 SLP957

時間: 05:09 (11:09 UTC)

予報

当レポートは2時間30分前の08:39(UTC)に作成
予報は20日の 09時(UTC)から 21日の 06時(UTC)まで有効
西/南西の風 10kt
視程: 10km
高度600ftの雲は散在している
高度1200ftの曇り
小雨
20日の 09時(UTC)から 20日の 18時(UTC)まで一時的に
視程: 4.8km
高度600ftの曇り
小雨, 雪, 靄
20日の 14時(UTC)から 20日の 16時(UTC)まで徐々に
北西の風 10kt
20日の 1800時(UTC)から
北西の風 12kt、最大22ktの突風を伴う
視程: 10km
高度600ftの雲は散在している
高度1200ftの曇り
小雨
20日の 18時(UTC)から 21日の 04時(UTC)まで一時的に
視程: 6.4km
高度500ftの曇り
小雨, 靄
21日の 0400時(UTC)から
北西の風 12kt、最大22ktの突風を伴う
視程: 3.2km
高度600ftの曇り
小雨, 雪

TAF: CYEG 200839Z 2009/2106 25010KT P6SM -RA SCT006 OVC012 TEMPO 2009/2018 3SM -RASN BR OVC006 BECMG 2014/2016 32010KT FM201800 32012G22KT P6SM -RA SCT006 OVC012 TEMPO 2018/2104 4SM -RA BR OVC005 FM210400 32012G22KT 2SM -RASN OVC006 RMK NXT FCST BY 201200Z

4,000以上の空港の気象観測と天気予報(METAR報とTAF報)

利用可能な観測所は地図上に黄色い丸と赤い丸で示す。

丸の上にカーソルを重ねると観測所名を参照できる。

次にクリックすると気象観測と天気予報を参照できる。

マップの切り替え:黒色「×」印の緑ボタンをクリックして拡大、「-」印の緑ボタンをクリックして縮小、緑色の三角印をクリックして隣りの地図に切り替え


METAR-TAF: